createdAt,value
2018-12-07T00:00:57.506Z,1007.24
2018-12-07T00:02:50.452Z,1007.19
2018-12-07T00:03:50.482Z,1007.16
2018-12-07T00:05:43.435Z,1007.17
2018-12-07T00:06:43.460Z,1007.16
2018-12-07T00:08:37.274Z,1007.22
2018-12-07T00:09:36.432Z,1007.23
2018-12-07T00:11:29.380Z,1007.25
2018-12-07T00:12:29.406Z,1007.25
2018-12-07T00:14:24.532Z,1007.21
2018-12-07T00:15:24.549Z,1007.16
2018-12-07T00:17:17.503Z,1007.13
2018-12-07T00:18:17.525Z,1007.17
2018-12-07T00:20:10.475Z,1007.06
2018-12-07T00:21:10.501Z,1007.07
2018-12-07T00:23:03.441Z,1007.02
2018-12-07T00:24:03.471Z,1007.00
2018-12-07T00:25:56.428Z,1007.01
2018-12-07T00:26:56.446Z,1006.99
2018-12-07T00:28:49.394Z,1006.99
2018-12-07T00:29:49.421Z,1007.00
2018-12-07T00:31:42.377Z,1007.00
2018-12-07T00:32:42.399Z,1007.01
2018-12-07T00:34:35.360Z,1006.92
2018-12-07T00:35:35.365Z,1006.91
2018-12-07T00:37:28.311Z,1006.93
2018-12-07T00:38:28.343Z,1006.90
2018-12-07T00:40:21.294Z,1006.89
2018-12-07T00:41:21.314Z,1006.89
2018-12-07T00:43:14.265Z,1006.83
2018-12-07T00:44:14.295Z,1006.85
2018-12-07T00:46:07.251Z,1006.87
2018-12-07T00:47:07.268Z,1006.80
2018-12-07T00:49:00.218Z,1006.78
2018-12-07T00:50:00.241Z,1006.82
2018-12-07T00:51:53.198Z,1006.79
2018-12-07T00:52:53.219Z,1006.82
2018-12-07T00:54:46.189Z,1006.78
2018-12-07T00:55:46.193Z,1006.77
2018-12-07T00:57:41.667Z,1006.77
2018-12-07T00:58:39.174Z,1006.76
2018-12-07T01:00:32.120Z,1006.70
2018-12-07T01:01:32.139Z,1006.66
2018-12-07T01:03:25.085Z,1006.66
2018-12-07T01:04:25.112Z,1006.69
2018-12-07T01:06:18.069Z,1006.62
2018-12-07T01:07:18.089Z,1006.60
2018-12-07T01:09:11.029Z,1006.62
2018-12-07T01:10:11.059Z,1006.60
2018-12-07T01:12:04.015Z,1006.62
2018-12-07T01:13:04.035Z,1006.62
2018-12-07T01:14:56.984Z,1006.63
2018-12-07T01:15:57.014Z,1006.67
2018-12-07T01:17:49.968Z,1006.60
2018-12-07T01:18:49.990Z,1006.60
2018-12-07T01:20:42.941Z,1006.58
2018-12-07T01:21:42.961Z,1006.57
2018-12-07T01:23:35.911Z,1006.50
2018-12-07T01:24:35.939Z,1006.47
2018-12-07T01:26:28.890Z,1006.45
2018-12-07T01:27:28.913Z,1006.47
2018-12-07T01:29:21.855Z,1006.40
2018-12-07T01:30:21.887Z,1006.43
2018-12-07T01:32:14.839Z,1006.40
2018-12-07T01:33:14.865Z,1006.34
2018-12-07T01:35:07.816Z,1006.34
2018-12-07T01:36:07.840Z,1006.33
2018-12-07T01:38:00.789Z,1006.33
2018-12-07T01:39:00.808Z,1006.36
2018-12-07T01:40:53.767Z,1006.30
2018-12-07T01:41:53.787Z,1006.31
2018-12-07T01:43:46.735Z,1006.31
2018-12-07T01:44:46.763Z,1006.26
2018-12-07T01:46:39.718Z,1006.19
2018-12-07T01:47:39.737Z,1006.23
2018-12-07T01:49:32.683Z,1006.23
2018-12-07T01:50:32.711Z,1006.17
2018-12-07T01:52:25.688Z,1006.16
2018-12-07T01:53:25.687Z,1006.20
2018-12-07T01:55:18.658Z,1006.15
2018-12-07T01:56:18.660Z,1006.18
2018-12-07T01:58:11.613Z,1006.14
2018-12-07T01:59:11.633Z,1006.10
2018-12-07T02:01:04.587Z,1006.08
2018-12-07T02:02:04.603Z,1006.13
2018-12-07T02:03:57.546Z,1006.06
2018-12-07T02:04:57.575Z,1006.06
2018-12-07T02:06:50.526Z,1006.01
2018-12-07T02:07:50.552Z,1006.05
2018-12-07T02:09:43.495Z,1006.00
2018-12-07T02:10:43.525Z,1006.00
2018-12-07T02:12:36.486Z,1006.00
2018-12-07T02:13:36.504Z,1006.00
2018-12-07T02:15:29.448Z,1005.93
2018-12-07T02:16:29.478Z,1005.93
2018-12-07T02:18:22.431Z,1005.87
2018-12-07T02:19:22.452Z,1005.84
2018-12-07T02:21:15.392Z,1005.85
2018-12-07T02:22:15.422Z,1005.85
2018-12-07T02:24:08.377Z,1005.82
2018-12-07T02:25:08.396Z,1005.86
2018-12-07T02:27:01.841Z,1005.85
2018-12-07T02:28:01.864Z,1005.76
2018-12-07T02:29:54.806Z,1005.74
2018-12-07T02:30:54.837Z,1005.71
2018-12-07T02:32:47.794Z,1005.69
2018-12-07T02:33:47.812Z,1005.67
2018-12-07T02:35:40.755Z,1005.67
2018-12-07T02:36:40.786Z,1005.67
2018-12-07T02:38:33.742Z,1005.65
2018-12-07T02:39:33.761Z,1005.68
2018-12-07T02:41:26.702Z,1005.64
2018-12-07T02:42:26.734Z,1005.65
2018-12-07T02:44:19.692Z,1005.58
2018-12-07T02:45:19.707Z,1005.59
2018-12-07T02:47:12.661Z,1005.61
2018-12-07T02:48:12.680Z,1005.65
2018-12-07T02:50:05.630Z,1005.55
2018-12-07T02:51:05.658Z,1005.55
2018-12-07T02:52:58.606Z,1005.56
2018-12-07T02:53:58.628Z,1005.51
2018-12-07T02:55:51.577Z,1005.53
2018-12-07T02:56:51.603Z,1005.49
2018-12-07T02:58:44.558Z,1005.43
2018-12-07T02:59:44.578Z,1005.45
2018-12-07T03:01:37.531Z,1005.46
2018-12-07T03:02:37.559Z,1005.42
2018-12-07T03:04:30.513Z,1005.49
2018-12-07T03:05:30.534Z,1005.40
2018-12-07T03:07:23.506Z,1005.34
2018-12-07T03:08:23.505Z,1005.38
2018-12-07T03:10:16.459Z,1005.39
2018-12-07T03:11:16.480Z,1005.36
2018-12-07T03:13:09.429Z,1005.33
2018-12-07T03:14:09.454Z,1005.36
2018-12-07T03:16:02.397Z,1005.32
2018-12-07T03:17:02.429Z,1005.36
2018-12-07T03:18:55.377Z,1005.35
2018-12-07T03:19:55.401Z,1005.34
2018-12-07T03:21:48.344Z,1005.30
2018-12-07T03:22:48.373Z,1005.27
2018-12-07T03:24:41.323Z,1005.28
2018-12-07T03:25:41.344Z,1005.30
2018-12-07T03:27:34.292Z,1005.29
2018-12-07T03:28:34.323Z,1005.30
2018-12-07T03:30:27.288Z,1005.19
2018-12-07T03:31:27.298Z,1005.19
2018-12-07T03:33:20.267Z,1005.15
2018-12-07T03:34:20.265Z,1005.08
2018-12-07T03:36:13.214Z,1005.08
2018-12-07T03:37:13.243Z,1005.11
2018-12-07T03:39:06.198Z,1005.14
2018-12-07T03:40:06.224Z,1005.09
2018-12-07T03:41:59.162Z,1005.06
2018-12-07T03:42:59.192Z,1005.09
2018-12-07T03:44:52.146Z,1005.09
2018-12-07T03:45:52.169Z,1005.08
2018-12-07T03:47:45.110Z,1005.08
2018-12-07T03:48:45.135Z,1005.03
2018-12-07T03:50:38.088Z,1005.05
2018-12-07T03:51:38.112Z,1005.11
2018-12-07T03:53:31.065Z,1005.09
2018-12-07T03:54:31.081Z,1005.11
2018-12-07T03:56:24.038Z,1005.07
2018-12-07T03:57:24.074Z,1005.04
2018-12-07T03:59:17.013Z,1005.05
2018-12-07T04:00:17.039Z,1005.00
2018-12-07T04:02:09.988Z,1005.01
2018-12-07T04:03:10.013Z,1004.98
2018-12-07T04:05:02.998Z,1005.03
2018-12-07T04:06:02.985Z,1005.04
2018-12-07T04:07:55.929Z,1005.04
2018-12-07T04:08:55.956Z,1005.08
2018-12-07T04:10:48.910Z,1005.04
2018-12-07T04:11:48.930Z,1004.97
2018-12-07T04:13:41.885Z,1005.01
2018-12-07T04:14:41.904Z,1005.01
2018-12-07T04:16:34.847Z,1004.97
2018-12-07T04:17:34.880Z,1004.97
2018-12-07T04:19:27.835Z,1004.99
2018-12-07T04:20:27.857Z,1005.02
2018-12-07T04:22:20.794Z,1004.92
2018-12-07T04:23:20.839Z,1005.01
2018-12-07T04:25:13.776Z,1004.88
2018-12-07T04:26:13.800Z,1004.95
2018-12-07T04:28:06.740Z,1004.93
2018-12-07T04:29:06.773Z,1004.84
2018-12-07T04:30:59.720Z,1004.84
2018-12-07T04:31:59.746Z,1004.81
2018-12-07T04:33:52.695Z,1004.80
2018-12-07T04:34:52.716Z,1004.81
2018-12-07T04:36:45.665Z,1004.81
2018-12-07T04:37:45.697Z,1004.79
2018-12-07T04:39:38.649Z,1004.71
2018-12-07T04:40:38.669Z,1004.74
2018-12-07T04:42:31.613Z,1004.71
2018-12-07T04:43:31.641Z,1004.72
2018-12-07T04:45:24.594Z,1004.74
2018-12-07T04:46:24.624Z,1004.67
2018-12-07T04:48:17.558Z,1004.75
2018-12-07T04:49:17.590Z,1004.77
2018-12-07T04:51:10.541Z,1004.75
2018-12-07T04:52:10.563Z,1004.77
2018-12-07T04:54:03.514Z,1004.78
2018-12-07T04:55:03.543Z,1004.70
2018-12-07T04:56:56.482Z,1004.71
2018-12-07T04:57:56.512Z,1004.78
2018-12-07T04:59:49.469Z,1004.77
2018-12-07T05:00:49.487Z,1004.75
2018-12-07T05:02:42.437Z,1004.73
2018-12-07T05:03:42.467Z,1004.75
2018-12-07T05:05:35.415Z,1004.72
2018-12-07T05:06:35.438Z,1004.75
2018-12-07T05:08:28.384Z,1004.77
2018-12-07T05:09:28.416Z,1004.74
2018-12-07T05:11:21.364Z,1004.76
2018-12-07T05:12:21.385Z,1004.77
2018-12-07T05:14:14.329Z,1004.74
2018-12-07T05:15:14.360Z,1004.66
2018-12-07T05:17:07.315Z,1004.71
2018-12-07T05:18:07.370Z,1004.65
2018-12-07T05:20:00.292Z,1004.74
2018-12-07T05:21:00.316Z,1004.65
2018-12-07T05:22:53.263Z,1004.67
2018-12-07T05:23:53.323Z,1004.66
2018-12-07T05:25:46.245Z,1004.70
2018-12-07T05:26:46.268Z,1004.67
2018-12-07T05:28:39.214Z,1004.60
2018-12-07T05:29:39.247Z,1004.77
2018-12-07T05:31:32.198Z,1004.62
2018-12-07T05:32:32.217Z,1004.56
2018-12-07T05:34:25.164Z,1004.55
2018-12-07T05:35:25.197Z,1004.54
2018-12-07T05:37:18.160Z,1004.50
2018-12-07T05:38:18.166Z,1004.47
2018-12-07T05:40:11.169Z,1004.45
2018-12-07T05:41:11.185Z,1004.44
2018-12-07T05:43:04.131Z,1004.43
2018-12-07T05:44:04.165Z,1004.47
2018-12-07T05:45:57.117Z,1004.45
2018-12-07T05:46:57.139Z,1004.44
2018-12-07T05:48:50.099Z,1004.44
2018-12-07T05:49:50.111Z,1004.45
2018-12-07T05:51:43.069Z,1004.41
2018-12-07T05:52:43.092Z,1004.41
2018-12-07T05:54:36.034Z,1004.38
2018-12-07T05:55:36.062Z,1004.35
2018-12-07T05:57:29.030Z,1004.40
2018-12-07T05:58:29.036Z,1004.33
2018-12-07T06:00:21.988Z,1004.35
2018-12-07T06:01:22.009Z,1004.32
2018-12-07T06:03:14.955Z,1004.26
2018-12-07T06:04:14.983Z,1004.26
2018-12-07T06:06:07.934Z,1004.24
2018-12-07T06:07:07.957Z,1004.27
2018-12-07T06:09:00.906Z,1004.28
2018-12-07T06:10:00.935Z,1004.25
2018-12-07T06:11:55.081Z,1004.27
2018-12-07T06:12:53.903Z,1004.20
2018-12-07T06:14:46.850Z,1004.18
2018-12-07T06:15:46.879Z,1004.18
2018-12-07T06:17:39.830Z,1004.12
2018-12-07T06:18:39.856Z,1004.09
2018-12-07T06:20:32.797Z,1004.08
2018-12-07T06:21:32.827Z,1004.12
2018-12-07T06:23:25.774Z,1004.11
2018-12-07T06:24:25.797Z,1004.03
2018-12-07T06:26:18.756Z,1004.01
2018-12-07T06:27:18.772Z,1003.99
2018-12-07T06:29:11.715Z,1004.03
2018-12-07T06:30:11.745Z,1004.01
2018-12-07T06:32:04.697Z,1003.96
2018-12-07T06:33:04.716Z,1003.98
2018-12-07T06:34:57.666Z,1003.93
2018-12-07T06:35:57.694Z,1003.93
2018-12-07T06:37:50.647Z,1003.92
2018-12-07T06:38:50.665Z,1003.91
2018-12-07T06:40:43.622Z,1003.96
2018-12-07T06:41:43.644Z,1003.95
2018-12-07T06:43:36.606Z,1003.91
2018-12-07T06:44:36.624Z,1003.92
2018-12-07T06:46:29.574Z,1003.89
2018-12-07T06:47:29.596Z,1003.86
2018-12-07T06:49:22.541Z,1003.91
2018-12-07T06:50:22.574Z,1003.87
2018-12-07T06:52:15.530Z,1003.85
2018-12-07T06:53:15.551Z,1003.83
2018-12-07T06:55:08.492Z,1003.85
2018-12-07T06:56:08.524Z,1003.80
2018-12-07T06:58:01.479Z,1003.83
2018-12-07T06:59:01.503Z,1003.80
2018-12-07T07:00:54.451Z,1003.76
2018-12-07T07:01:54.482Z,1003.72
2018-12-07T07:03:47.433Z,1003.75
2018-12-07T07:04:47.454Z,1003.70
2018-12-07T07:06:40.410Z,1003.67
2018-12-07T07:07:40.435Z,1003.71
2018-12-07T07:09:33.377Z,1003.61
2018-12-07T07:10:33.408Z,1003.59
2018-12-07T07:12:26.361Z,1003.53
2018-12-07T07:13:26.380Z,1003.53
2018-12-07T07:15:19.324Z,1003.58
2018-12-07T07:16:23.042Z,1003.54
2018-12-07T07:18:12.330Z,1003.54
2018-12-07T07:19:12.329Z,1003.46
2018-12-07T07:21:05.273Z,1003.48
2018-12-07T07:22:05.304Z,1003.46
2018-12-07T07:23:58.259Z,1003.47
2018-12-07T07:24:58.281Z,1003.43
2018-12-07T07:26:51.237Z,1003.48
2018-12-07T07:27:51.261Z,1003.47
2018-12-07T07:29:44.252Z,1003.40
2018-12-07T07:30:44.238Z,1003.44
2018-12-07T07:32:37.692Z,1003.38
2018-12-07T07:33:37.730Z,1003.37
2018-12-07T07:35:30.659Z,1003.39
2018-12-07T07:36:30.693Z,1003.35
2018-12-07T07:38:23.643Z,1003.32
2018-12-07T07:39:23.662Z,1003.32
2018-12-07T07:41:16.615Z,1003.32
2018-12-07T07:42:16.642Z,1003.29
2018-12-07T07:44:09.595Z,1003.22
2018-12-07T07:45:09.615Z,1003.20
2018-12-07T07:47:02.568Z,1003.22
2018-12-07T07:48:02.593Z,1003.19
2018-12-07T07:49:55.539Z,1003.14
2018-12-07T07:50:55.566Z,1003.10
2018-12-07T07:52:48.523Z,1003.06
2018-12-07T07:53:48.545Z,1003.08
2018-12-07T07:55:41.492Z,1003.03
2018-12-07T07:56:41.522Z,1003.01
2018-12-07T07:58:34.489Z,1003.02
2018-12-07T07:59:34.500Z,1002.97
2018-12-07T08:01:27.449Z,1002.97
2018-12-07T08:02:29.189Z,1002.96
2018-12-07T08:04:20.434Z,1002.98
2018-12-07T08:05:20.451Z,1002.94
2018-12-07T08:07:13.411Z,1002.97
2018-12-07T08:08:13.431Z,1002.88
2018-12-07T08:10:06.375Z,1002.92
2018-12-07T08:11:06.405Z,1002.90
2018-12-07T08:12:59.356Z,1002.91
2018-12-07T08:13:59.381Z,1002.88
2018-12-07T08:15:52.327Z,1002.83
2018-12-07T08:16:52.356Z,1002.82
2018-12-07T08:18:45.314Z,1002.86
2018-12-07T08:19:45.340Z,1002.81
2018-12-07T08:21:38.287Z,1002.81
2018-12-07T08:22:38.316Z,1002.77
2018-12-07T08:24:31.268Z,1002.81
2018-12-07T08:25:31.291Z,1002.80
2018-12-07T08:27:24.259Z,1002.74
2018-12-07T08:28:24.265Z,1002.74
2018-12-07T08:30:17.213Z,1002.71
2018-12-07T08:31:17.240Z,1002.70
2018-12-07T08:33:10.194Z,1002.69
2018-12-07T08:34:10.219Z,1002.64
2018-12-07T08:36:03.163Z,1002.60
2018-12-07T08:37:03.193Z,1002.61
2018-12-07T08:38:56.144Z,1002.57
2018-12-07T08:39:56.167Z,1002.60
2018-12-07T08:41:49.116Z,1002.53
2018-12-07T08:42:49.141Z,1002.53
2018-12-07T08:44:42.098Z,1002.49
2018-12-07T08:45:42.118Z,1002.49
2018-12-07T08:47:35.066Z,1002.44
2018-12-07T08:48:35.094Z,1002.42
2018-12-07T08:50:28.050Z,1002.34
2018-12-07T08:51:28.070Z,1002.35
2018-12-07T08:53:21.032Z,1002.37
2018-12-07T08:54:21.044Z,1002.30
2018-12-07T08:56:13.993Z,1002.29
2018-12-07T08:57:14.020Z,1002.27
2018-12-07T08:59:06.977Z,1002.26
2018-12-07T09:00:06.997Z,1002.28
2018-12-07T09:01:59.944Z,1002.27
2018-12-07T09:02:59.974Z,1002.23
2018-12-07T09:04:52.927Z,1002.26
2018-12-07T09:05:52.949Z,1002.23
2018-12-07T09:07:45.896Z,1002.19
2018-12-07T09:08:45.927Z,1002.22
2018-12-07T09:10:38.881Z,1002.18
2018-12-07T09:11:38.900Z,1002.15
2018-12-07T09:13:31.853Z,1002.16
2018-12-07T09:14:31.873Z,1002.14
2018-12-07T09:16:24.820Z,1002.13
2018-12-07T09:17:24.852Z,1002.11
2018-12-07T09:19:17.801Z,1002.10
2018-12-07T09:20:17.826Z,1002.10
2018-12-07T09:22:10.770Z,1002.08
2018-12-07T09:23:10.801Z,1002.07
2018-12-07T09:25:03.755Z,1001.99
2018-12-07T09:26:03.774Z,1002.00
2018-12-07T09:27:56.724Z,1001.96
2018-12-07T09:28:56.753Z,1001.95
2018-12-07T09:30:49.705Z,1001.91
2018-12-07T09:31:49.729Z,1001.91
2018-12-07T09:33:42.674Z,1001.85
2018-12-07T09:34:42.704Z,1001.86
2018-12-07T09:36:35.656Z,1001.75
2018-12-07T09:37:35.679Z,1001.76
2018-12-07T09:39:28.634Z,1001.76
2018-12-07T09:40:28.652Z,1001.77
2018-12-07T09:42:21.598Z,1001.66
2018-12-07T09:43:21.628Z,1001.64
2018-12-07T09:45:14.586Z,1001.66
2018-12-07T09:46:14.603Z,1001.66
2018-12-07T09:48:07.552Z,1001.63
2018-12-07T09:49:07.577Z,1001.61
2018-12-07T09:51:00.532Z,1001.65
2018-12-07T09:52:00.554Z,1001.60
2018-12-07T09:53:53.494Z,1001.56
2018-12-07T09:54:53.522Z,1001.55
2018-12-07T09:56:46.481Z,1001.47
2018-12-07T09:57:46.502Z,1001.48
2018-12-07T09:59:39.472Z,1001.48
2018-12-07T10:00:39.481Z,1001.44
2018-12-07T10:02:32.421Z,1001.42
2018-12-07T10:03:32.449Z,1001.33
2018-12-07T10:05:25.405Z,1001.35
2018-12-07T10:06:25.425Z,1001.30
2018-12-07T10:08:18.370Z,1001.25
2018-12-07T10:09:18.402Z,1001.23
2018-12-07T10:11:11.357Z,1001.13
2018-12-07T10:12:11.378Z,1001.15
2018-12-07T10:14:04.323Z,1001.11
2018-12-07T10:15:04.353Z,1001.12
2018-12-07T10:16:57.307Z,1001.07
2018-12-07T10:17:57.324Z,1001.07
2018-12-07T10:19:50.271Z,1001.06
2018-12-07T10:20:50.301Z,1000.99
2018-12-07T10:22:43.259Z,1000.96
2018-12-07T10:23:43.284Z,1000.96
2018-12-07T10:25:36.234Z,1000.96
2018-12-07T10:26:36.256Z,1000.92
2018-12-07T10:28:29.202Z,1000.93
2018-12-07T10:29:29.234Z,1000.84
2018-12-07T10:31:22.185Z,1000.87
2018-12-07T10:32:22.208Z,1000.73
2018-12-07T10:34:15.153Z,1000.80
2018-12-07T10:35:15.186Z,1000.81
2018-12-07T10:37:08.138Z,1000.70
2018-12-07T10:38:08.159Z,1000.66
2018-12-07T10:40:01.101Z,1000.63
2018-12-07T10:41:01.131Z,1000.61
2018-12-07T10:42:54.088Z,1000.59
2018-12-07T10:43:54.110Z,1000.55
2018-12-07T10:45:47.060Z,1000.59
2018-12-07T10:46:47.084Z,1000.49
2018-12-07T10:48:40.027Z,1000.44
2018-12-07T10:49:40.059Z,1000.42
2018-12-07T10:51:33.012Z,1000.37
2018-12-07T10:52:33.033Z,1000.33
2018-12-07T10:54:25.978Z,1000.38
2018-12-07T10:55:26.009Z,1000.26
2018-12-07T10:57:18.961Z,1000.30
2018-12-07T10:58:18.984Z,1000.27
2018-12-07T11:00:11.930Z,1000.19
2018-12-07T11:01:11.960Z,1000.19
2018-12-07T11:03:04.915Z,1000.11
2018-12-07T11:04:04.935Z,1000.11
2018-12-07T11:05:57.884Z,1000.05
2018-12-07T11:06:57.905Z,999.96
2018-12-07T11:08:50.869Z,1000.02
2018-12-07T11:09:50.893Z,999.96
2018-12-07T11:11:44.334Z,999.86
2018-12-07T11:12:44.356Z,999.87
2018-12-07T11:14:37.303Z,999.83
2018-12-07T11:15:37.336Z,999.81
2018-12-07T11:17:30.283Z,999.77
2018-12-07T11:18:30.306Z,999.77
2018-12-07T11:20:23.253Z,999.72
2018-12-07T11:21:23.284Z,999.73
2018-12-07T11:23:16.237Z,999.66
2018-12-07T11:24:16.261Z,999.59
2018-12-07T11:26:09.212Z,999.51
2018-12-07T11:27:09.237Z,999.55
2018-12-07T11:29:02.184Z,999.52
2018-12-07T11:30:02.214Z,999.41
2018-12-07T11:31:55.171Z,999.36
2018-12-07T11:32:55.191Z,999.35
2018-12-07T11:34:48.142Z,999.31
2018-12-07T11:35:48.171Z,999.26
2018-12-07T11:37:41.121Z,999.23
2018-12-07T11:38:41.147Z,999.19
2018-12-07T11:40:34.096Z,999.11
2018-12-07T11:41:34.124Z,999.06
2018-12-07T11:43:27.088Z,999.04
2018-12-07T11:44:27.105Z,998.99
2018-12-07T11:46:20.047Z,998.93
2018-12-07T11:47:20.079Z,998.97
2018-12-07T11:49:13.068Z,998.99
2018-12-07T11:50:13.064Z,998.96
2018-12-07T11:52:06.010Z,998.90
2018-12-07T11:53:06.035Z,998.87
2018-12-07T11:54:58.975Z,998.90
2018-12-07T11:55:59.010Z,998.87
2018-12-07T11:57:51.963Z,998.86
2018-12-07T11:58:51.984Z,998.82
2018-12-07T12:00:44.929Z,998.81
2018-12-07T12:01:45.162Z,998.65
2018-12-07T12:03:37.910Z,998.55
2018-12-07T12:04:37.933Z,998.45
2018-12-07T12:06:30.878Z,998.37
2018-12-07T12:07:32.728Z,998.42
2018-12-07T12:09:23.858Z,998.34
2018-12-07T12:10:23.881Z,998.31
2018-12-07T12:12:16.837Z,998.24
2018-12-07T12:13:16.858Z,998.29
2018-12-07T12:15:09.803Z,998.31
2018-12-07T12:16:09.833Z,998.24
2018-12-07T12:18:02.796Z,998.19
2018-12-07T12:19:02.809Z,998.17
2018-12-07T12:20:55.758Z,998.10
2018-12-07T12:21:55.789Z,998.08
2018-12-07T12:23:53.651Z,997.95
2018-12-07T12:24:48.767Z,997.95
2018-12-07T12:26:41.717Z,997.89
2018-12-07T12:27:41.745Z,997.86
2018-12-07T12:29:34.709Z,997.87
2018-12-07T12:30:34.725Z,997.84
2018-12-07T12:32:27.688Z,997.92
2018-12-07T12:33:27.710Z,997.88
2018-12-07T12:35:21.518Z,997.87
2018-12-07T12:36:20.696Z,997.80
2018-12-07T12:38:13.648Z,997.84
2018-12-07T12:39:13.674Z,997.89
2018-12-07T12:41:06.619Z,997.80
2018-12-07T12:42:06.655Z,997.83
2018-12-07T12:43:59.623Z,997.86
2018-12-07T12:44:59.644Z,997.90
2018-12-07T12:46:52.598Z,997.83
2018-12-07T12:47:52.630Z,997.90
2018-12-07T12:49:45.594Z,997.83
2018-12-07T12:50:45.604Z,997.88
2018-12-07T12:52:38.562Z,997.83
2018-12-07T12:53:38.580Z,997.79
2018-12-07T12:55:31.528Z,997.77
2018-12-07T12:56:31.570Z,997.79
2018-12-07T12:58:24.514Z,997.84
2018-12-07T12:59:24.542Z,997.72
2018-12-07T13:01:17.476Z,997.69
2018-12-07T13:02:17.506Z,997.69
2018-12-07T13:04:10.464Z,997.66
2018-12-07T13:05:10.484Z,997.60
2018-12-07T13:07:03.469Z,997.60
2018-12-07T13:08:03.462Z,997.60
2018-12-07T13:09:56.418Z,997.49
2018-12-07T13:10:56.443Z,997.48
2018-12-07T13:12:49.388Z,997.36
2018-12-07T13:13:49.415Z,997.33
2018-12-07T13:15:42.357Z,997.28
2018-12-07T13:16:42.388Z,997.27
2018-12-07T13:18:35.339Z,997.18
2018-12-07T13:19:35.368Z,997.13
2018-12-07T13:21:28.308Z,997.14
2018-12-07T13:22:28.343Z,997.20
2018-12-07T13:24:21.294Z,997.23
2018-12-07T13:25:21.317Z,997.20
2018-12-07T13:27:14.266Z,997.24
2018-12-07T13:28:14.291Z,997.07
2018-12-07T13:30:07.243Z,997.13
2018-12-07T13:31:07.263Z,997.11
2018-12-07T13:33:00.215Z,996.99
2018-12-07T13:34:00.240Z,997.00
2018-12-07T13:35:53.187Z,996.96
2018-12-07T13:36:53.215Z,996.87
2018-12-07T13:38:46.167Z,996.80
2018-12-07T13:39:46.241Z,996.71
2018-12-07T13:41:39.281Z,996.63
2018-12-07T13:42:39.194Z,996.68
2018-12-07T13:44:32.117Z,996.59
2018-12-07T13:45:32.325Z,996.53
2018-12-07T13:47:25.257Z,996.48
2018-12-07T13:48:25.240Z,996.48
2018-12-07T13:50:18.081Z,996.49
2018-12-07T13:51:18.244Z,996.36
2018-12-07T13:53:11.050Z,996.37
2018-12-07T13:54:11.064Z,996.34
2018-12-07T13:56:04.108Z,996.43
2018-12-07T13:57:04.116Z,996.40
2018-12-07T13:58:57.055Z,996.39
2018-12-07T13:59:57.084Z,996.37
2018-12-07T14:01:50.019Z,996.36
2018-12-07T14:02:50.000Z,996.38
2018-12-07T14:04:42.944Z,996.25
2018-12-07T14:05:43.087Z,996.24
2018-12-07T14:07:35.945Z,996.19
2018-12-07T14:08:35.964Z,996.19
2018-12-07T14:10:28.967Z,996.16
2018-12-07T14:11:29.059Z,996.20
2018-12-07T14:13:21.882Z,996.02
2018-12-07T14:14:21.928Z,996.02
2018-12-07T14:16:14.837Z,996.04
2018-12-07T14:17:14.972Z,996.05
2018-12-07T14:19:08.019Z,995.95
2018-12-07T14:20:07.860Z,995.93
2018-12-07T14:22:00.795Z,995.84
2018-12-07T14:23:00.964Z,995.81
2018-12-07T14:24:53.922Z,995.79
2018-12-07T14:25:53.916Z,995.74
2018-12-07T14:27:46.765Z,995.65
2018-12-07T14:28:46.911Z,995.63
2018-12-07T14:30:39.911Z,995.64
2018-12-07T14:31:39.791Z,995.62
2018-12-07T14:33:32.707Z,995.53
2018-12-07T14:34:32.740Z,995.45
2018-12-07T14:36:25.700Z,995.37
2018-12-07T14:37:25.738Z,995.33
2018-12-07T14:39:18.666Z,995.27
2018-12-07T14:40:18.720Z,995.28
2018-12-07T14:42:11.705Z,995.28
2018-12-07T14:43:11.687Z,995.26
2018-12-07T14:45:04.798Z,995.19
2018-12-07T14:46:04.666Z,995.23
2018-12-07T14:47:57.657Z,995.19
2018-12-07T14:48:57.629Z,995.16
2018-12-07T14:50:50.671Z,995.16
2018-12-07T14:51:50.639Z,995.13
2018-12-07T14:53:43.554Z,995.09
2018-12-07T14:54:43.742Z,995.11
2018-12-07T14:56:36.522Z,995.09
2018-12-07T14:57:36.555Z,995.06
2018-12-07T14:59:29.644Z,995.11
2018-12-07T15:00:29.612Z,995.13
2018-12-07T15:02:22.548Z,995.10
2018-12-07T15:03:22.478Z,995.07
2018-12-07T15:05:15.524Z,995.00
2018-12-07T15:06:15.479Z,994.98
2018-12-07T15:08:08.558Z,994.94
2018-12-07T15:09:08.448Z,994.88
2018-12-07T15:11:01.587Z,994.81
2018-12-07T15:12:01.484Z,994.84
2018-12-07T15:13:54.584Z,994.90
2018-12-07T15:14:54.404Z,994.88
2018-12-07T15:16:47.424Z,994.86
2018-12-07T15:17:47.552Z,994.83
2018-12-07T15:19:40.562Z,994.82
2018-12-07T15:20:40.351Z,994.76
2018-12-07T15:22:33.312Z,994.74
2018-12-07T15:23:33.586Z,994.84
2018-12-07T15:25:26.462Z,994.77
2018-12-07T15:26:26.321Z,994.74
2018-12-07T15:28:19.271Z,994.75
2018-12-07T15:29:19.331Z,994.67
2018-12-07T15:31:12.293Z,994.57
2018-12-07T15:32:12.339Z,994.54
2018-12-07T15:34:05.234Z,994.46
2018-12-07T15:35:05.432Z,994.41
2018-12-07T15:36:58.395Z,994.41
2018-12-07T15:37:58.248Z,994.41
2018-12-07T15:39:51.218Z,994.38
2018-12-07T15:40:51.221Z,994.33
2018-12-07T15:42:44.389Z,994.30
2018-12-07T15:43:44.216Z,994.25
2018-12-07T15:45:37.311Z,994.20
2018-12-07T15:46:37.355Z,994.18
2018-12-07T15:48:30.088Z,994.06
2018-12-07T15:49:30.283Z,994.04
2018-12-07T15:51:23.086Z,994.00
2018-12-07T15:52:23.294Z,993.93
2018-12-07T15:54:16.035Z,993.94
2018-12-07T15:55:16.121Z,993.94
2018-12-07T15:57:09.055Z,993.92
2018-12-07T15:58:09.094Z,993.89
2018-12-07T16:00:02.280Z,993.82
2018-12-07T16:01:02.173Z,993.80
2018-12-07T16:02:55.161Z,993.83
2018-12-07T16:03:55.005Z,993.83
2018-12-07T16:05:47.985Z,993.84
2018-12-07T16:06:48.021Z,993.80
2018-12-07T16:08:41.220Z,993.73
2018-12-07T16:09:40.986Z,993.74
2018-12-07T16:11:34.131Z,993.63
2018-12-07T16:12:34.153Z,993.64
2018-12-07T16:14:27.149Z,993.63
2018-12-07T16:15:26.939Z,993.63
2018-12-07T16:17:19.973Z,993.66
2018-12-07T16:18:19.895Z,993.63
2018-12-07T16:20:12.822Z,993.60
2018-12-07T16:21:13.089Z,993.65
2018-12-07T16:23:05.827Z,993.61
2018-12-07T16:24:05.843Z,993.61
2018-12-07T16:25:58.835Z,993.59
2018-12-07T16:26:58.797Z,993.57
2018-12-07T16:28:51.807Z,993.53
2018-12-07T16:29:51.905Z,993.55
2018-12-07T16:31:44.798Z,993.52
2018-12-07T16:32:44.983Z,993.52
2018-12-07T16:34:37.730Z,993.45
2018-12-07T16:35:37.760Z,993.49
2018-12-07T16:37:30.775Z,993.49
2018-12-07T16:38:30.755Z,993.53
2018-12-07T16:40:23.794Z,993.45
2018-12-07T16:41:23.795Z,993.48
2018-12-07T16:43:16.722Z,993.40
2018-12-07T16:44:16.688Z,993.37
2018-12-07T16:46:09.631Z,993.27
2018-12-07T16:47:09.719Z,993.26
2018-12-07T16:49:02.606Z,993.27
2018-12-07T16:50:02.892Z,993.23
2018-12-07T16:51:55.594Z,993.19
2018-12-07T16:52:55.668Z,993.20
2018-12-07T16:54:49.086Z,993.13
2018-12-07T16:55:49.281Z,993.08
2018-12-07T16:57:42.004Z,992.99
2018-12-07T16:58:42.265Z,992.99
2018-12-07T17:00:35.533Z,992.96
2018-12-07T17:01:35.715Z,992.95
2018-12-07T17:03:28.680Z,992.93
2018-12-07T17:04:28.474Z,992.92
2018-12-07T17:06:22.203Z,992.88
2018-12-07T17:07:22.015Z,992.85
2018-12-07T17:09:14.919Z,992.79
2018-12-07T17:10:15.887Z,992.75
2018-12-07T17:12:08.389Z,992.72
2018-12-07T17:13:08.632Z,992.73
2018-12-07T17:15:01.842Z,992.71
2018-12-07T17:16:01.945Z,992.66
2018-12-07T17:17:55.547Z,992.55
2018-12-07T17:18:55.447Z,992.55
2018-12-07T17:20:48.302Z,992.56
2018-12-07T17:21:48.552Z,992.57
2018-12-07T17:23:41.902Z,992.44
2018-12-07T17:24:41.902Z,992.46
2018-12-07T17:26:34.907Z,992.32
2018-12-07T17:27:34.772Z,992.31
2018-12-07T17:29:27.903Z,992.30
2018-12-07T17:30:27.769Z,992.24
2018-12-07T17:32:20.877Z,992.23
2018-12-07T17:33:20.867Z,992.13
2018-12-07T17:35:13.900Z,991.93
2018-12-07T17:36:13.985Z,992.05
2018-12-07T17:38:07.245Z,992.03
2018-12-07T17:39:07.435Z,992.02